• Join FlightAware (Why Join?)
  • Login
  • US Flag 
Gobble Gobble! 
12:42PM EST


 

Airport Tracker/Info


-or-


 

Live Flight TrackerFlight Track Log ✈ GJS3710 ✈ 16-May-2013 ✈ KORD - KALB

Flight Track Log - Related Links

Times and Time Zones

All times are in EDT time to prevent confusion due to time zone crossing. See the GJS3710 flight status page for this flight to view local times or setup timezone preferences in your user account.

Time Position Orientation Groundspeed Altitude Reporting Facility
EDT Latitude Longitude Course Direction KTS MPH feet Rate Location/Type
10:14PM 42.2271 -87.1688 66° East  Level FlightAware Approximate
10:15PM 42.2667 -87.0152 90° East  Level FlightAware Approximate
10:16PM 42.2739 -86.8503 86° East  Level FlightAware Approximate
10:17PM 42.2817 -86.6855 86° East  Level FlightAware Approximate
10:18PM 42.2993 -86.5221 80° East  Level FlightAware Approximate
10:19PM 42.3000 -86.3570 90° East  Level FlightAware Approximate
10:20PM 42.3001 -86.1917 90° East  Level FlightAware Approximate
10:21PM 42.3000 -86.0265 90° East  Level FlightAware Approximate
10:22PM 42.3001 -85.8613 90° East  Level FlightAware Approximate
10:23PM 42.3000 -85.6960 90° East  Level FlightAware Approximate
10:24PM 42.3001 -85.5308 90° East  Level FlightAware Approximate
10:25PM 42.3001 -85.3655 90° East  Level FlightAware Approximate
10:26PM 42.3000 -85.2003 90° East  Level FlightAware Approximate
10:27PM 42.3000 -85.0350 90° East  Level FlightAware Approximate
10:28PM 42.2834 -84.8812 90° East  Level FlightAware Approximate
10:29PM 42.2834 -84.7160 90° East  Level FlightAware Approximate
10:30PM 42.2834 -84.5508 90° East  Level FlightAware Approximate
10:31PM 42.2854 -84.3859 79° East  Level FlightAware Approximate
10:32PM 42.3090 -84.2238 79° East  Level FlightAware Approximate
10:33PM 42.3324 -84.0615 79° East  Level FlightAware Approximate
10:34PM 42.3556 -83.8992 79° East  Level FlightAware Approximate
10:35PM 42.3786 -83.7367 79° East  Level FlightAware Approximate
10:36PM 42.4005 -83.5740 86° East  Level FlightAware Approximate
10:37PM 42.4089 -83.4088 86° East  Level FlightAware Approximate
10:38PM 42.4169 -83.2437 88° East  Level FlightAware Approximate
10:39PM 42.4215 -83.0782 88° East  Level FlightAware Approximate
10:40PM 42.4258 -82.9128 88° East  Level FlightAware Approximate
10:41PM 42.4299 -82.7473 88° East  Level FlightAware Approximate
10:42PM 42.4338 -82.5818 88° East  Level FlightAware Approximate
10:43PM 42.4375 -82.4162 88° East  Level FlightAware Approximate
10:44PM 42.4409 -82.2507 88° East  Level FlightAware Approximate
10:45PM 42.4440 -82.0851 88° East  Level FlightAware Approximate
10:46PM 42.4470 -81.9196 89° East  Level FlightAware Approximate
10:47PM 42.4497 -81.7540 89° East  Level FlightAware Approximate
10:48PM 42.4531 -81.5884 88° East  Level FlightAware Approximate
10:49PM 42.4565 -81.4228 88° East  Level FlightAware Approximate
10:50PM 42.4596 -81.2572 88° East  Level FlightAware Approximate
10:51PM 42.4624 -81.0916 89° East  Level FlightAware Approximate
10:52PM 42.4651 -80.9259 89° East  Level FlightAware Approximate
10:53PM 42.4676 -80.7603 89° East  Level FlightAware Approximate
10:54PM 42.4703 -80.5947 89° East  Level FlightAware Approximate
10:55PM 42.4728 -80.4290 89° East  Level FlightAware Approximate
10:56PM 42.4750 -80.2633 89° East  Level FlightAware Approximate
10:57PM 42.4770 -80.0976 89° East  Level FlightAware Approximate
10:58PM 42.4787 -79.9320 89° East  Level FlightAware Approximate
10:59PM 42.4802 -79.7663 89° East  Level FlightAware Approximate
11:00PM 42.4815 -79.6005 89° East  Level FlightAware Approximate
11:01PM 42.4825 -79.4348 89° East  Level FlightAware Approximate
11:02PM 42.4833 -79.2691 90° East  Level FlightAware Approximate
11:03PM 42.4952 -79.1041 84° East  Level FlightAware Approximate
11:04PM 42.5069 -78.9391 84° East  Level FlightAware Approximate
11:05PM 42.5182 -78.7740 85° East  Level FlightAware Approximate
11:06PM 42.5277 -78.6087 85° East  Level FlightAware Approximate
11:07PM 42.5370 -78.4433 86° East  Level FlightAware Approximate
11:08PM 42.5461 -78.2779 86° East  Level FlightAware Approximate
11:09PM 42.5549 -78.1124 86° East  Level FlightAware Approximate
11:10PM 42.5634 -77.9469 86° East  Level FlightAware Approximate
11:11PM 42.5736 -77.7816 85° East  Level FlightAware Approximate
11:12PM 42.5847 -77.6163 85° East  Level FlightAware Approximate
11:13PM 42.5956 -77.4509 85° East  Level FlightAware Approximate
11:14PM 42.6070 -77.2856 84° East  Level FlightAware Approximate
11:15PM 42.6181 -77.1202 86° East  Level FlightAware Approximate
11:16PM 42.6261 -76.9545 86° East  Level FlightAware Approximate
11:17PM 42.6333 -76.7887 90° East  Level FlightAware Approximate
11:18PM 42.6393 -76.6230 84° East  Level FlightAware Approximate
11:19PM 42.6500 -76.4576 90° East  Level FlightAware Approximate
11:20PM 42.6514 -76.2916 77° East  Level FlightAware Approximate
11:21PM 42.6667 -76.1278 90° East  Level FlightAware Approximate
11:22PM 42.6667 -75.9616 90° East  Level FlightAware Approximate
11:23PM 42.6804 -75.7978 75° East  Level FlightAware Approximate
11:24PM 42.6834 -75.6321 90° East  Level FlightAware Approximate
11:25PM 42.6833 -75.4659 90° East  Level FlightAware Approximate
11:26PM 42.6908 -75.3000 85° East  Level FlightAware Approximate
11:27PM 42.7013 -75.1344 85° East  Level FlightAware Approximate
11:28PM 42.7115 -74.9686 85° East  Level FlightAware Approximate
11:29PM 42.7167 -74.8026 90° East  Level FlightAware Approximate
11:30PM 42.7167 -74.6362 90° East  Level FlightAware Approximate
11:31PM 42.7233 -74.4704 83° East  Level FlightAware Approximate
11:32PM 42.7334 -74.3048 90° East  Level FlightAware Approximate
11:33PM 42.7333 -74.1384 90° East  Level FlightAware Approximate
11:34PM 42.7333 -73.9720 90° East  Level FlightAware Approximate
11:35PM 42.7333 -73.8056 90° East  Level FlightAware Approximate
11:36PM 42.7333 -73.8000 90° East  Level FlightAware Approximate
11:37PM 42.7491 -73.8020 90° East  Level Estimated
11:38PM 42.7491 -73.8020 90° East  Level Estimated
11:39PM 42.7491 -73.8020 90° East  Level Estimated